| time (UTC) | temp F | wind direction | speed MPH | gust MPH | rain 1hr in | rain 24hr in | rain mn in | humidity % | barometer mb |
| 20260906223330 | 72 | 196 | 3.0 | 0.0 | 0.00 | 0.00 | 0.00 | 27 | 1018.8 |
| 20260906220343 | 73 | 213 | 3.0 | 0.0 | 0.00 | 0.00 | 0.00 | 28 | 1018.6 |
| 20260906213335 | 74 | 181 | 4.0 | 0.0 | 0.00 | 0.00 | 0.00 | 26 | 1019.2 |
| 20260906203338 | 72 | 161 | 3.0 | 0.0 | 0.00 | 0.00 | 0.00 | 30 | 1020.0 |
| 20260906200330 | 73 | 129 | 3.0 | 0.0 | 0.00 | 0.00 | 0.00 | 29 | 1019.9 |
| 20260906193324 | 72 | 153 | 4.0 | 0.0 | 0.00 | 0.00 | 0.00 | 28 | 1020.7 |
| 20260906190336 | 71 | 155 | 3.0 | 0.0 | 0.00 | 0.00 | 0.00 | 30 | 1021.1 |
| 20260906183331 | 70 | 171 | 3.0 | 0.0 | 0.00 | 0.00 | 0.00 | 32 | 1021.9 |
| 20260906180322 | 69 | 131 | 3.0 | 0.0 | 0.00 | 0.00 | 0.00 | 32 | 1022.0 |
| 20260906173336 | 67 | 158 | 2.0 | 0.0 | 0.00 | 0.00 | 0.00 | 35 | 1022.5 |
| 20260906170326 | 66 | 137 | 3.0 | 0.0 | 0.00 | 0.00 | 0.00 | 37 | 1023.2 |
| 20260906163337 | 64 | 138 | 2.0 | 0.0 | 0.00 | 0.00 | 0.00 | 45 | 1022.9 |
| 20260906160350 | 61 | 171 | 1.0 | 0.0 | 0.00 | 0.00 | 0.00 | 53 | 1023.4 |
| 20260906153320 | 57 | 173 | 0.0 | 0.0 | 0.00 | 0.00 | 0.00 | 59 | 1023.5 |
| 20260906150332 | 55 | 11 | 0.0 | 0.0 | 0.00 | 0.00 | 0.00 | 61 | 1023.2 |
| 20260906143321 | 51 | 11 | 0.0 | 0.0 | 0.00 | 0.00 | 0.00 | 68 | 1023.1 |
| 20260906140332 | 44 | 360 | 2.0 | 0.0 | 0.00 | 0.00 | 0.00 | 76 | 1023.0 |
| 20260906133324 | 40 | 19 | 4.0 | 0.0 | 0.00 | 0.00 | 0.00 | 82 | 1022.7 |
| 20260906130334 | 37 | 35 | 3.0 | 0.0 | 0.00 | 0.00 | 0.00 | 84 | 1023.0 |
| 20260906123327 | 37 | 28 | 3.0 | 0.0 | 0.00 | 0.00 | 0.00 | 84 | 1022.9 |
| 20260906120319 | 37 | 49 | 2.0 | 0.0 | 0.00 | 0.00 | 0.00 | 84 | 1022.9 |
| 20260906113328 | 38 | 34 | 1.0 | 0.0 | 0.00 | 0.00 | 0.00 | 80 | 1022.8 |
| 20260906110320 | 40 | 13 | 2.0 | 0.0 | 0.00 | 0.00 | 0.00 | 78 | 1022.9 |
| 20260906103334 | 40 | 21 | 3.0 | 0.0 | 0.00 | 0.00 | 0.00 | 77 | 1022.8 |
| 20260906100327 | 40 | 20 | 3.0 | 0.0 | 0.00 | 0.00 | 0.00 | 79 | 1022.6 |
| 20260906093321 | 40 | 17 | 2.0 | 0.0 | 0.00 | 0.00 | 0.00 | 78 | 1022.6 |
| 20260906090335 | 42 | 30 | 3.0 | 0.0 | 0.00 | 0.00 | 0.00 | 74 | 1022.2 |
| 20260906083330 | 43 | 24 | 2.0 | 0.0 | 0.00 | 0.00 | 0.00 | 73 | 1022.2 |
| 20260906080323 | 44 | 23 | 0.0 | 0.0 | 0.00 | 0.00 | 0.00 | 71 | 1022.4 |
| 20260906073357 | 44 | 19 | 5.0 | 0.0 | 0.00 | 0.00 | 0.00 | 70 | 1022.2 |
| 20260906070327 | 46 | 22 | 5.0 | 0.0 | 0.00 | 0.00 | 0.00 | 66 | 1022.3 |
| 20260906063322 | 47 | 17 | 4.0 | 0.0 | 0.00 | 0.00 | 0.00 | 66 | 1022.3 |
| 20260906060356 | 46 | 25 | 4.0 | 0.0 | 0.00 | 0.00 | 0.00 | 69 | 1022.7 |
| 20260906053329 | 45 | 40 | 3.0 | 0.0 | 0.00 | 0.00 | 0.00 | 71 | 1022.8 |
| 20260906050320 | 46 | 15 | 1.0 | 0.0 | 0.00 | 0.00 | 0.00 | 69 | 1022.8 |
| 20260906043333 | 47 | 22 | 2.0 | 0.0 | 0.00 | 0.00 | 0.00 | 68 | 1022.3 |
| 20260906040326 | 50 | 355 | 1.0 | 0.0 | 0.00 | 0.00 | 0.00 | 60 | 1022.4 |
| 20260906033339 | 49 | 130 | 0.0 | 0.0 | 0.00 | 0.00 | 0.00 | 69 | 1022.1 |
| 20260906030333 | 52 | 130 | 0.0 | 0.0 | 0.00 | 0.00 | 0.00 | 65 | 1022.0 |
| 20260906023328 | 57 | 130 | 0.0 | 0.0 | 0.00 | 0.00 | 0.00 | 55 | 1021.4 |
| 20260906020321 | 63 | 130 | 0.0 | 0.0 | 0.00 | 0.00 | 0.00 | 39 | 1021.5 |
| 20260906013335 | 68 | 197 | 0.0 | 0.0 | 0.00 | 0.00 | 0.00 | 31 | 1021.3 |
| 20260906010344 | 71 | 196 | 1.0 | 0.0 | 0.00 | 0.00 | 0.00 | 31 | 1021.7 |
| 20260906003336 | 72 | 198 | 4.0 | 0.0 | 0.00 | 0.00 | 0.00 | 28 | 1021.4 |
| 20260906000349 | 74 | 196 | 2.0 | 0.0 | 0.00 | 0.00 | 0.00 | 24 | 1021.2 |
| 20260905233323 | 74 | 199 | 3.0 | 0.0 | 0.00 | 0.00 | 0.00 | 22 | 1021.6 |
| 20260905230336 | 75 | 177 | 3.0 | 0.0 | 0.00 | 0.00 | 0.00 | 22 | 1021.5 |